Observation of Berlin-Dahlem in FM12 format


Date: 11.05.2021

Hour: 22 UTC
NIL The FM12 was submited to late!
Hour: 21 UTC
NIL The FM12 was submited to late!
Hour: 20 UTC

SNDL DWBD 112000
AAXX 11201
10381 41580 72707 10183 20137 39954 40047 52020 71322 84972
    333 55300 83920 81830 84073
    555 00178 10000 22070 2300 2405 91012 91112 91207
  BOT 10209 20217 30209 40143 50100
   666 10197 20183=
Hour: 19 UTC

SNDL DWBD 111900
AAXX 11191
10381 42680 72905 10197 20142 39938 40030 53003 82954
    333 55300 81940 81850 85073
    555 00189 10000 22051 2300 2405 91009 91109 91205
  BOT 10224 20229 30215 40142 50100
   666 10227 20197=
Hour: 18 UTC

SMDL DWBD 111800
AAXX 11181
10381 02678 73105 10227 20136 39935 40026 55000 60002 82344
    333 10283 20175 30018 55307 60007 81940 81850 84073
    555 00216 10000 22052 2345 2402 2502 91009 91109 91206
  BOT 10242 20242 30219 40139 50099
           80000 100000
   666 10244 20227=
Hour: 17 UTC

Fatal Error occurred!



Error message: First row is missing completely! 83
If you don't know why this happend, send a message to quali@met.fu-berln.de.

Hour: 16 UTC

SNDL DWBD 111600
AAXX 11161
10381 42778 52907 10250 20127 39935 40026 56008 81232
    333 55310 81856 83073
    555 00253 10000 22067 2360 2405 91009 91110 91208
  BOT 10281 20265 30221 40135 50099
   666 10279 20250=
Hour: 15 UTC

SIDL DWBD 111500 CCA
AAXX 11151
10381 22780 62503 10277 20126 39935 40025 57011 82258
    333 55310 60007 82856 83075
    555 00303 10000 22033 2360 2407 91005 91106 91203
  BOT 10301 20269 30216 40134 50098
   666 10283 20276=
Hour: 14 UTC

SNDL DWBD 111400
AAXX 11141
10381 42778 62801 10276 20125 39938 40028 57011 81208
    333 55310 81856 84075
    555 00306 10000 22006 2360 2405 91003 91106 91202
  BOT 10306 20267 30209 40133 50098
   666 10279 20268=
Hour: 13 UTC

SNDL DWBD 111300
AAXX 11131
10381 42783 62002 10269 20123 39943 40033 57011 81154
    333 55309 81856 83369 85072
    555 00310 10000 22023 2354 2405 91004 91106 91203
  BOT 10305 20259 30199 40132 50098
   666 10277 20260=
Hour: 12 UTC

SMDL DWBD 111200
AAXX 11121
10381 02983 30101 10266 20134 39946 40036 57013 60001 81034
    333 30/// 55310 60007 81368 83075
    555 00306 10000 22005 2360 2401 91003 91105 91203
  BOT 10294 20245 30188 40132 50098
           80000 100000
   666 10266 20251=
Hour: 11 UTC

SNDL DWBD 111100
AAXX 11111
10381 42983 22602 10251 20153 39949 40040 57014 81031
    333 55310 81366
    555 00289 10000 22023 2360 2405 91004 91104 91203
  BOT 10275 20226 30177 40132 50097
   666 10251 20231=
Hour: 10 UTC

SNDL DWBD 111000
AAXX 11101
10381 42982 42502 10236 20147 39954 40045 58009 81032
    333 55310 81366 84075
    555 00268 10000 22024 2360 2405 91006 91106 91203
  BOT 10247 20205 30166 40132 50097
   666 10237 20221=
Hour: 9 UTC

SIDL DWBD 110900
AAXX 11091
10381 22982 61801 10222 20142 39959 40051 58003 81032
    333 20150 3/012 55310 60007 81366 86074
    555 00249 10000 22014 2358 2407 91003 91104 91202
  BOT 10213 20186 30160 40132 50097
   666 10223 20207=
Hour: 8 UTC

SNDL DWBD 110800
AAXX 11081
10381 42982 61302 10208 20143 39963 40055 56005 82032
    333 55310 82366 86080
    555 00232 10000 22016 2360 2405 91004 91104 91202
  BOT 10191 20170 30155 40133 50097
   666 10208 20186=
Hour: 7 UTC

SNDL DWBD 110700
AAXX 11071
10381 42981 71101 10186 20134 39963 40056 55013 85072
    333 55306 82363 84465 86075
    555 00193 10000 22014 2339 2405 91003 91107 91204
  BOT 10170 20162 30154 40133 50096
   666 10186 20175=
Hour: 6 UTC

SMDL DWBD 110600
AAXX 11061
10381 02981 70704 10175 20129 39962 40055 58014 60002 85074
    333 10263 20150 30012 55132 55310 60007 70000 83364 83468 87076
    555 00179 10000 20210 22043 2360 2404 91007 91107 91205
  BOT 10162 20157 30153 40134 50096
           80000 100000 20792 3105 4068 600//00 70296 80115 900610
   666 10175 20161=
Hour: 5 UTC

SNDL DWBD 110500
AAXX 11051
10381 42982 70504 10161 20122 39968 40062 57012 85074
    333 55304 84363 83468 86076
    555 00165 10000 22036 2323 2405 91007 91108 91205
  BOT 10152 20153 30155 40134 50096
   666 10161 20150=
Hour: 4 UTC

SNDL DWBD 110400
AAXX 11041
10381 42984 60403 10151 20114 39976 40070 56007 85072
    333 55300 83362 83468
    555 00126 10000 22033 2300 2405 91005 91106 91204
  BOT 10147 20155 30158 40134 50096
   666 10158 20151=
Hour: 3 UTC

SIDL DWBD 110300
AAXX 11031
10381 22984 50403 10158 20117 39976 40070 57014 82032
    333 55300 60007 82366 84074
    555 00142 10000 22033 2300 2407 91005 91109 91205
  BOT 10150 20158 30161 40134 50095
   666 10163 20157=
Hour: 2 UTC

SNDL DWBD 110200
AAXX 11021
10381 42984 60405 10163 20116 39980 40074 57015 84031
    333 55300 84367 84074
    555 00150 10000 22049 2300 2405 91008 91110 91206
  BOT 10153 20162 30164 40134 50095
   666 10171 20163=
Hour: 1 UTC

SNDL DWBD 110100 CCA
AAXX 11011
10381 42984 60306 10170 20116 39983 40077 58009 84052
    333 55300 83368 84074
    555 00155 10000 22060 2300 2405 91010 91110 91206
  BOT 10157 20166 30168 40134 50095
   666 10177 20169=
Hour: 0 UTC

SMDL DWBD 110000
AAXX 11001
10381 02984 30304 10175 20123 39990 40084 58001 60001 80002
    333 30/// 55300 60007 83074
    555 00156 10000 22038 2300 2401 91006 91108 91205
  BOT 10162 20171 30173 40133 50095
           80000 100000
   666 10184 20174=

Yesterday Synops


Hour: 23 UTC

SNDL DWBD 102300
AAXX 10231
10381 42984 20204 10183 20124 39995 40088 53002 80001
    333 55300 82075
    555 00157 10000 22043 2300 2405 91007 91107 91205
  BOT 10167 20177 30178 40132 50094
   666 10199 20183=
Hour: 22 UTC

SNDL DWBD 102200
AAXX 10221
10381 42984 20205 10190 20119 39992 40085 50003 80001
    333 55300 82075
    555 00146 10000 22048 2300 2405 91008 91108 91205
  BOT 10174 20185 30183 40131 50094
   666 10193 20169=
Hour: 21 UTC

SIDL DWBD 102100
AAXX 10211
10381 22984 33503 10177 20123 39991 40085 50004 81031
    333 55300 60007 81363 83075
    555 00132 10000 22029 2300 2407 91004 91104 91204
  BOT 10185 20194 30190 40129 50094
   666 10204 20177=
Hour: 20 UTC

SNDL DWBD 102000 CCA
AAXX 10201
10381 42984 33203 10203 20108 39993 40086 52012 81031
    333 55300 81363 83076
    555 00144 10000 22034 2300 2405 91004 91105 91204
  BOT 10199 20206 30196 40127 50094
   666 10238 20203=
Hour: 19 UTC

SNDL DWBD 101900
AAXX 10191
10381 42882 43004 10238 20102 39989 40081 52013 81412
    333 55301 81858 84076
    555 00197 10000 22035 2302 2405 91006 91108 91206
  BOT 10217 20219 30201 40125 50093
   666 10263 20238=
Hour: 18 UTC

SMDL DWBD 101800
AAXX 10181
10381 02883 43006 10262 20112 39987 40078 52014 60002 81202
    333 10296 20160 30013 55304 60007 81858 83080
    555 00239 10000 22057 2321 2402 91010 91111 91206
  BOT 10236 20233 30205 40122 50093
           80000 100000
   666 10280 20262=
Hour: 17 UTC

SNDL DWBD 101700 CCA
AAXX 10171
10381 42881 52703 10280 20112 39981 40071 52010 82202
    333 55307 82858 85080
    555 00263 10000 22030 2344 2405 91006 91107 91204
  BOT 10256 20246 30205 40120 50093
   666 10290 20278=
Hour: 16 UTC

SNDL DWBD 101600 CCC
AAXX 10161
10381 42884 52904 10290 20116 39976 40066 52009 81204
    333 55310 81858 85080
    555 00289 10000 22041 2358 2405 91007 91109 91205
  BOT 10275 20253 30203 40118 50093
   666 10296 20289=
Hour: 15 UTC

SIDL DWBD 101500 CCA
AAXX 10151
10381 22784 32105 10292 20127 39973 40063 52008 81202
    333 55310 60007 81850
    555 00312 10000 22046 2360 2407 91008 91109 91205
  BOT 10289 20254 30197 40116 50092
   666 10293 20287=
Hour: 14 UTC

SNDL DWBD 101400 CCB
AAXX 10141
10381 42984 32105 10291 20122 39971 40061 55000 80002
    333 55310 83080
    555 00316 10000 22051 2360 2405 91009 91110 91207
  BOT 10293 20251 30188 40115 50092
   666 10294 20285=
Hour: 13 UTC

SNDL DWBD 101300
AAXX 10131
10381 42984 31805 10285 20121 39967 40057 55003 80002
    333 55310 83076
    555 00315 10000 22053 2360 2405 91009 91109 91205
  BOT 10288 20239 30177 40114 50092
   666 10285 20268=
Hour: 12 UTC

SMDL DWBD 101200 CCA
AAXX 10121
10381 02984 51404 10270 20116 39965 40055 55006 60001 80004
    333 30/// 55310 60007 85076
    555 00298 10000 22044 2360 2401 91009 91109 91204
  BOT 10278 20224 30164 40114 50092
           80000 100000
   666 10275 20256=
Hour: 11 UTC

SNDL DWBD 101100
AAXX 10111
10381 42984 41504 10257 20123 39971 40062 55003 80002
    333 55310 84076
    555 00289 10000 22039 2360 2405 91008 91108 91204
  BOT 10256 20204 30151 40114 50092
   666 10257 20237=
Hour: 10 UTC

SNDL DWBD 101000
AAXX 10101
10381 42984 51504 10238 20113 39970 40061 58002 80002
    333 55310 85076
    555 00265 10000 22041 2360 2405 91007 91108 91204
  BOT 10231 20182 30138 40114 50091
   666 10241 20214=
Hour: 9 UTC

SIDL DWBD 100900
AAXX 10091
10381 22984 51603 10214 20094 39971 40063 50001 80002
    333 20115 3/006 55310 60007 85076
    555 00238 10000 22032 2360 2407 91006 91106 91204
  BOT 10197 20155 30127 40115 50091
   666 10221 20201=
Hour: 8 UTC

SNDL DWBD 100800
AAXX 10081
10381 42984 51704 10203 20096 39974 40067 53003 80001
    333 55310 85080
    555 00216 10000 22042 2360 2405 91008 91108 91204
  BOT 10151 20130 30122 40115 50091
   666 10203 20177=
Hour: 7 UTC

SNDL DWBD 100700
AAXX 10071
10381 42984 51503 10178 20085 39972 40065 55000 80001
    333 55310 85076
    555 00148 10000 22033 2360 2405 91008 91108 91205
  BOT 10118 20119 30122 40116 50091
   666 10178 20160=
Hour: 6 UTC

SMDL DWBD 100600
AAXX 10061
10381 02984 51405 10161 20082 39970 40064 58001 60002 80004
    333 10244 20115 31006 55133 55310 60007 70000 85080
    555 00131 10000 20185 22046 2360 2404 91008 91108 91205
  BOT 10110 20117 30123 40116 50091
           80000 100000 20799 3118 4066 600//00 70269 80095 900520
   666 10161 20138=
Hour: 5 UTC

SNDL DWBD 100500
AAXX 10051
10381 42984 21405 10139 20084 39971 40066 54000 80001
    333 55310 82076
    555 00098 10000 22046 2360 2405 91007 91107 91205
  BOT 10106 20117 30126 40117 50091
   666 10140 20117=
Hour: 4 UTC

SNDL DWBD 100400
AAXX 10041
10381 42984 31305 10117 20085 39972 40068 55001 80001
    333 55301 83075
    555 00065 10000 22045 2308 2405 91006 91106 91205
  BOT 10106 20121 30130 40117 50091
   666 10122 20115=
Hour: 3 UTC

SIDL DWBD 100300
AAXX 10031
10381 22984 31304 10120 20084 39971 40066 56002 80001
    333 55300 60007 83075
    555 00064 10000 22043 2300 2407 91006 91106 91204
  BOT 10112 20126 30134 40117 50090
   666 10135 20120=
Hour: 2 UTC

SNDL DWBD 100200 CCA
AAXX 10021
10381 42984 31404 10135 20078 39971 40066 57003 80001
    333 55300 83075
    555 00077 10000 22037 2300 2405 91005 91107 91205
  BOT 10119 20132 30138 40116 50090
   666 10154 20135=
Hour: 1 UTC

SNDL DWBD 100100
AAXX 10011
10381 42984 31505 10154 20080 39973 40067 56004 80004
    333 55300 83080
    555 00089 10000 22045 2300 2405 91007 91107 91205
  BOT 10124 20137 30143 40116 50090
   666 10165 20152=
Hour: 0 UTC

SMDL DWBD 100000
AAXX 10001
10381 02984 01605 10164 20082 39973 40067 57007 60001
    333 30/// 55300 60007
    555 00101 10000 22046 2300 2401 91006 91108 91206
  BOT 10131 20144 30147 40115 50090
           80000 100000
   666 10178 20164=

The day before yesterday Synops


Hour: 23 UTC

SNDL DWBD 092300
AAXX 09231
10381 42984 01606 10176 20088 39974 40068 58005
    333 55300
    555 00104 10000 22056 2300 2405 91008 91109 91206
  BOT 10139 20150 30152 40114 50090
   666 10189 20175=
Hour: 22 UTC

SNDL DWBD 092200
AAXX 09221
10381 42984 11505 10189 20095 39977 40070 50000 80001
    333 55300 81076
    555 00130 10000 22049 2300 2405 91008 91108 91205
  BOT 10147 20157 30157 40113 50089
   666 10189 20179=
Hour: 21 UTC

SIDL DWBD 092100
AAXX 09211
10381 22984 11504 10183 20092 39980 40073 52004 80001
    333 55300 60007 81076
    555 00125 10000 22040 2300 2407 91006 91107 91205
  BOT 10156 20166 30163 40111 50089
   666 10193 20182=
Hour: 20 UTC

SNDL DWBD 092000
AAXX 09201
10381 42984 21404 10190 20090 39979 40072 53003 80002
    333 55300 82076
    555 00121 10000 22040 2300 2405 91006 91108 91205
  BOT 10168 20177 30169 40109 50089
   666 10218 20190=
Hour: 19 UTC

SNDL DWBD 091900
AAXX 09191
10381 42984 31605 10218 20084 39977 40069 55005 80002
    333 55304 83076
    555 00141 10000 22045 2325 2405 91007 91109 91205
  BOT 10184 20189 30174 40106 50089
   666 10244 20218=
Hour: 18 UTC

SMDL DWBD 091800
AAXX 09181
10381 02984 31504 10244 20085 39976 40067 56012 60002 80002
    333 10269 20126 30012 55309 60007 83078
    555 00192 10000 22043 2356 2402 91007 91108 91205
  BOT 10205 20204 30178 40104 50089
           80000 100000
   666 10259 20244=
Hour: 17 UTC

SNDL DWBD 091700
AAXX 09171
10381 42984 61604 10259 20085 39976 40067 57017 80002
    333 55305 86078
    555 00239 10000 22036 2329 2405 91006 91108 91206
  BOT 10228 20215 30178 40102 50089
   666 10264 20255=
Hour: 16 UTC

SNDL DWBD 091600
AAXX 09161
10381 42984 61805 10261 20073 39982 40073 57013 80002
    333 55310 86078
    555 00251 10000 22047 2357 2405 91009 91109 91206
  BOT 10244 20224 30175 40099 50089
   666 10269 20261=
Hour: 15 UTC

SIDL DWBD 091500
AAXX 09151
10381 22984 41804 10262 20078 39988 40079 57013 80002
    333 55310 60007 84078
    555 00279 10000 22035 2360 2407 91007 91109 91205
  BOT 10257 20224 30169 40097 50089
   666 10265 20254=
Hour: 14 UTC

SNDL DWBD 091400
AAXX 09141
10381 42984 42205 10257 20069 39993 40084 57013 80002
    333 55310 84078
    555 00284 10000 22051 2360 2405 91009 91110 91206
  BOT 10252 20218 30161 40096 50088
   666 10257 20246=
Hour: 13 UTC

SNDL DWBD 091300
AAXX 09131
10381 42984 31905 10251 20078 39995 40086 57015 80002
    333 55310 83078
    555 00276 10000 22048 2360 2405 91009 91111 91207
  BOT 10255 20209 30149 40095 50088
   666 10253 20237=
Hour: 12 UTC

SMDL DWBD 091200
AAXX 09121
10381 02984 32004 10237 20078 30001 40093 57013 60001 80002
    333 30/// 55310 60007 83080
    555 00265 10000 22044 2360 2401 91008 91111 91206
  BOT 10237 20191 30137 40094 50088
           80000 100000
   666 10241 20227=
Hour: 11 UTC

SNDL DWBD 091100
AAXX 09111
10381 42884 52005 10230 20080 30006 40098 57010 81102
    333 55310 81856 85080
    555 00251 10000 22047 2360 2405 91009 91112 91206
  BOT 10213 20172 30124 40094 50088
   666 10233 20218=
Hour: 10 UTC

SNDL DWBD 091000
AAXX 09101
10381 42884 41906 10219 20081 30010 40103 57009 81502
    333 55310 81656 84078
    555 00241 10000 22057 2360 2405 91009 91110 91206
  BOT 10194 20152 30112 40094 50088
   666 10222 20199=
Hour: 9 UTC

SIDL DWBD 090900
AAXX 09091
10381 22784 41905 10201 20079 30014 40107 58005 81502
    333 20095 3/005 55310 60007 81656 84078
    555 00221 10000 22046 2360 2407 91008 91108 91205
  BOT 10171 20131 30102 40094 50088
   666 10201 20173=
Hour: 8 UTC

SNDL DWBD 090800
AAXX 09081
10381 42784 51805 10173 20063 30016 40110 58001 82501
    333 55310 82656 84076
    555 00186 10000 22045 2360 2405 91008 91108 91205
  BOT 10134 20109 30096 40094 50088
   666 10175 20142=
Hour: 7 UTC

SNDL DWBD 090700
AAXX 09071
10381 42784 61805 10143 20047 30019 40114 56002 83502
    333 55310 83656 85076
    555 00131 10000 22048 2360 2405 91008 91108 91205
  BOT 10105 20097 30094 40094 50088
   666 10144 20126=
Hour: 6 UTC

SMDL DWBD 090600
AAXX 09061
10381 02784 61804 10126 20039 30019 40115 55002 60002 84502
    333 10129 20095 31005 55086 55307 60007 70000 84656 85076
    555 00124 10000 20089 22036 2344 2404 91006 91107 91205
  BOT 10093 20090 30094 40095 50088
           80000 100000 20516 3098 4054 600//00 70146 80009 910210
   666 10126 20101=
Hour: 5 UTC

SNDL DWBD 090500
AAXX 09051
10381 42784 61604 10101 20028 30017 40114 57006 82502
    333 55308 82650 86076
    555 00073 10000 22039 2347 2405 91006 91107 91205
  BOT 10082 20090 30095 40095 50088
   666 10101 20095=
Hour: 4 UTC

SNDL DWBD 090400
AAXX 09041
10381 42984 61604 10097 20019 30021 40118 56007 81072
    333 55300 81360 86075
    555 00063 10000 22043 2300 2405 91006 91107 91205
  BOT 10085 20093 30097 40095 50088
   666 10106 20097=
Hour: 3 UTC

SIDL DWBD 090300 CCA
AAXX 09031
10381 22884 71605 10106 20020 30021 40117 57011 8157/
    333 55300 60007 81656 86360
    555 00086 10000 22045 2300 2407 91007 91107 91205
  BOT 10092 20096 30099 40095 50088
   666 10108 20106=
Hour: 2 UTC

SNDL DWBD 090200 CCA
AAXX 09021
10381 42784 81504 10108 20020 30023 40119 57016 875//
    333 55300 87656
    555 00091 10000 22037 2300 2405 91005 91106 91204
  BOT 10093 20098 30100 40095 50088
   666 10109 20105=
Hour: 1 UTC

SNDL DWBD 090100
AAXX 09011
10381 42784 81504 10107 20016 30028 40125 57016 875//
    333 55300 87650
    555 00094 10000 22036 2300 2405 91005 91107 91204
  BOT 10094 20099 30101 40094 50088
   666 10108 20104=
Hour: 0 UTC

SMDL DWBD 090000
AAXX 09001
10381 02784 81404 10104 20016 30032 40129 57015 60001 875//
    333 31/// 55300 60007 87650
    555 00091 10000 22041 2300 2401 91006 91106 91204
  BOT 10095 20100 30103 40094 50088
           80000 100000
   666 10105 20100=